sensor_id;sensor_type;location;lat;lon;timestamp;P1;durP1;ratioP1;P2;durP2;ratioP2
46036;SDS011;31769;49.304;8.428;2022-11-20T00:01:29;25.88;;;19.88;;
46036;SDS011;31769;49.304;8.428;2022-11-20T00:04:30;23.02;;;18.88;;
46036;SDS011;31769;49.304;8.428;2022-11-20T00:07:31;25.25;;;19.00;;
46036;SDS011;31769;49.304;8.428;2022-11-20T00:10:31;27.17;;;20.88;;
46036;SDS011;31769;49.304;8.428;2022-11-20T00:13:32;29.85;;;24.15;;
46036;SDS011;31769;49.304;8.428;2022-11-20T00:16:33;28.95;;;21.55;;
46036;SDS011;31769;49.304;8.428;2022-11-20T00:19:34;28.90;;;21.02;;
46036;SDS011;31769;49.304;8.428;2022-11-20T00:22:35;26.50;;;20.20;;
46036;SDS011;31769;49.304;8.428;2022-11-20T00:25:35;25.63;;;19.52;;
46036;SDS011;31769;49.304;8.428;2022-11-20T00:28:36;28.33;;;19.95;;
46036;SDS011;31769;49.304;8.428;2022-11-20T00:31:36;24.35;;;17.92;;
46036;SDS011;31769;49.304;8.428;2022-11-20T00:34:37;22.42;;;16.15;;
46036;SDS011;31769;49.304;8.428;2022-11-20T00:37:38;22.95;;;16.05;;
46036;SDS011;31769;49.304;8.428;2022-11-20T00:40:38;21.83;;;16.52;;
46036;SDS011;31769;49.304;8.428;2022-11-20T00:43:39;23.70;;;17.05;;
46036;SDS011;31769;49.304;8.428;2022-11-20T00:46:40;19.80;;;15.80;;
46036;SDS011;31769;49.304;8.428;2022-11-20T00:49:41;20.92;;;16.98;;
46036;SDS011;31769;49.304;8.428;2022-11-20T00:52:41;18.98;;;14.75;;
46036;SDS011;31769;49.304;8.428;2022-11-20T00:55:42;17.77;;;14.85;;
46036;SDS011;31769;49.304;8.428;2022-11-20T00:58:43;20.02;;;14.73;;
46036;SDS011;31769;49.304;8.428;2022-11-20T01:01:45;19.00;;;15.32;;
46036;SDS011;31769;49.304;8.428;2022-11-20T01:04:46;19.65;;;15.75;;
46036;SDS011;31769;49.304;8.428;2022-11-20T01:07:47;21.70;;;15.98;;
46036;SDS011;31769;49.304;8.428;2022-11-20T01:10:47;19.58;;;15.93;;
46036;SDS011;31769;49.304;8.428;2022-11-20T01:13:48;20.13;;;16.08;;
46036;SDS011;31769;49.304;8.428;2022-11-20T01:16:50;21.83;;;17.48;;
46036;SDS011;31769;49.304;8.428;2022-11-20T01:19:51;22.88;;;17.20;;
46036;SDS011;31769;49.304;8.428;2022-11-20T01:22:52;22.98;;;18.08;;
46036;SDS011;31769;49.304;8.428;2022-11-20T01:25:53;21.15;;;16.63;;
46036;SDS011;31769;49.304;8.428;2022-11-20T01:28:54;22.00;;;16.75;;
46036;SDS011;31769;49.304;8.428;2022-11-20T01:31:55;20.98;;;16.17;;
46036;SDS011;31769;49.304;8.428;2022-11-20T01:34:56;21.80;;;16.98;;
46036;SDS011;31769;49.304;8.428;2022-11-20T01:37:57;21.50;;;16.65;;
46036;SDS011;31769;49.304;8.428;2022-11-20T01:40:57;20.60;;;16.25;;
46036;SDS011;31769;49.304;8.428;2022-11-20T01:43:58;20.77;;;16.30;;
46036;SDS011;31769;49.304;8.428;2022-11-20T01:47:01;21.67;;;17.08;;
46036;SDS011;31769;49.304;8.428;2022-11-20T01:50:06;22.90;;;17.50;;
46036;SDS011;31769;49.304;8.428;2022-11-20T01:53:10;21.20;;;16.25;;
46036;SDS011;31769;49.304;8.428;2022-11-20T01:56:15;21.42;;;16.48;;
46036;SDS011;31769;49.304;8.428;2022-11-20T01:59:16;22.40;;;16.83;;
46036;SDS011;31769;49.304;8.428;2022-11-20T02:02:19;21.20;;;16.92;;
46036;SDS011;31769;49.304;8.428;2022-11-20T02:05:28;22.05;;;16.70;;
46036;SDS011;31769;49.304;8.428;2022-11-20T02:08:41;23.17;;;17.33;;
46036;SDS011;31769;49.304;8.428;2022-11-20T02:11:42;24.33;;;17.67;;
46036;SDS011;31769;49.304;8.428;2022-11-20T02:14:43;24.10;;;17.67;;
46036;SDS011;31769;49.304;8.428;2022-11-20T02:17:44;25.17;;;18.15;;
46036;SDS011;31769;49.304;8.428;2022-11-20T02:20:45;23.88;;;17.52;;
46036;SDS011;31769;49.304;8.428;2022-11-20T02:27:02;22.75;;;17.42;;
46036;SDS011;31769;49.304;8.428;2022-11-20T02:30:09;25.33;;;18.45;;
46036;SDS011;31769;49.304;8.428;2022-11-20T02:33:11;25.38;;;18.65;;
46036;SDS011;31769;49.304;8.428;2022-11-20T02:36:14;28.02;;;19.00;;
46036;SDS011;31769;49.304;8.428;2022-11-20T02:39:16;22.67;;;17.50;;
46036;SDS011;31769;49.304;8.428;2022-11-20T02:42:17;24.13;;;17.58;;
46036;SDS011;31769;49.304;8.428;2022-11-20T02:45:18;28.45;;;18.27;;
46036;SDS011;31769;49.304;8.428;2022-11-20T02:48:18;24.40;;;18.17;;
46036;SDS011;31769;49.304;8.428;2022-11-20T02:51:19;25.98;;;18.77;;
46036;SDS011;31769;49.304;8.428;2022-11-20T02:54:20;26.30;;;18.58;;
46036;SDS011;31769;49.304;8.428;2022-11-20T02:57:20;24.90;;;18.65;;
46036;SDS011;31769;49.304;8.428;2022-11-20T03:00:21;24.90;;;18.10;;
46036;SDS011;31769;49.304;8.428;2022-11-20T03:03:22;25.15;;;18.95;;
46036;SDS011;31769;49.304;8.428;2022-11-20T03:06:22;26.55;;;19.20;;
46036;SDS011;31769;49.304;8.428;2022-11-20T03:09:23;25.20;;;19.15;;
46036;SDS011;31769;49.304;8.428;2022-11-20T03:12:24;26.75;;;19.10;;
46036;SDS011;31769;49.304;8.428;2022-11-20T03:15:24;29.48;;;18.90;;
46036;SDS011;31769;49.304;8.428;2022-11-20T03:18:27;26.13;;;18.58;;
46036;SDS011;31769;49.304;8.428;2022-11-20T03:21:28;28.92;;;18.88;;
46036;SDS011;31769;49.304;8.428;2022-11-20T03:24:29;29.00;;;19.40;;
46036;SDS011;31769;49.304;8.428;2022-11-20T03:27:33;29.05;;;19.92;;
46036;SDS011;31769;49.304;8.428;2022-11-20T03:30:34;27.45;;;19.38;;
46036;SDS011;31769;49.304;8.428;2022-11-20T03:33:35;31.73;;;19.30;;
46036;SDS011;31769;49.304;8.428;2022-11-20T03:36:39;29.05;;;20.17;;
46036;SDS011;31769;49.304;8.428;2022-11-20T03:39:41;29.42;;;20.15;;
46036;SDS011;31769;49.304;8.428;2022-11-20T03:42:42;30.15;;;21.80;;
46036;SDS011;31769;49.304;8.428;2022-11-20T03:45:45;30.45;;;21.77;;
46036;SDS011;31769;49.304;8.428;2022-11-20T03:48:46;31.05;;;21.08;;
46036;SDS011;31769;49.304;8.428;2022-11-20T03:51:48;35.55;;;22.42;;
46036;SDS011;31769;49.304;8.428;2022-11-20T03:54:48;30.88;;;22.30;;
46036;SDS011;31769;49.304;8.428;2022-11-20T03:57:49;41.25;;;28.33;;
46036;SDS011;31769;49.304;8.428;2022-11-20T04:00:50;46.30;;;29.63;;
46036;SDS011;31769;49.304;8.428;2022-11-20T04:03:51;46.05;;;31.60;;
46036;SDS011;31769;49.304;8.428;2022-11-20T04:06:53;47.13;;;31.67;;
46036;SDS011;31769;49.304;8.428;2022-11-20T04:09:54;44.47;;;29.10;;
46036;SDS011;31769;49.304;8.428;2022-11-20T04:12:55;41.22;;;26.85;;
46036;SDS011;31769;49.304;8.428;2022-11-20T04:15:57;42.15;;;28.38;;
46036;SDS011;31769;49.304;8.428;2022-11-20T04:18:58;49.33;;;32.35;;
46036;SDS011;31769;49.304;8.428;2022-11-20T04:22:00;48.88;;;31.92;;
46036;SDS011;31769;49.304;8.428;2022-11-20T04:25:01;50.72;;;34.38;;
46036;SDS011;31769;49.304;8.428;2022-11-20T04:28:02;52.03;;;34.67;;
46036;SDS011;31769;49.304;8.428;2022-11-20T04:31:04;54.15;;;36.42;;
46036;SDS011;31769;49.304;8.428;2022-11-20T04:34:06;53.38;;;36.60;;
46036;SDS011;31769;49.304;8.428;2022-11-20T04:37:07;55.45;;;37.90;;
46036;SDS011;31769;49.304;8.428;2022-11-20T04:40:08;52.60;;;35.53;;
46036;SDS011;31769;49.304;8.428;2022-11-20T04:43:09;55.08;;;37.60;;
46036;SDS011;31769;49.304;8.428;2022-11-20T04:46:10;46.50;;;34.58;;
46036;SDS011;31769;49.304;8.428;2022-11-20T04:49:10;51.35;;;35.25;;
46036;SDS011;31769;49.304;8.428;2022-11-20T04:52:11;52.47;;;33.38;;
46036;SDS011;31769;49.304;8.428;2022-11-20T04:55:12;46.90;;;31.63;;
46036;SDS011;31769;49.304;8.428;2022-11-20T04:58:13;44.53;;;30.02;;
46036;SDS011;31769;49.304;8.428;2022-11-20T05:01:15;42.13;;;28.80;;
46036;SDS011;31769;49.304;8.428;2022-11-20T05:04:20;47.73;;;28.47;;
46036;SDS011;31769;49.304;8.428;2022-11-20T05:07:21;38.47;;;26.80;;
46036;SDS011;31769;49.304;8.428;2022-11-20T05:10:22;39.53;;;28.33;;
46036;SDS011;31769;49.304;8.428;2022-11-20T05:13:22;36.63;;;26.15;;
46036;SDS011;31769;49.304;8.428;2022-11-20T05:16:23;34.65;;;25.20;;
46036;SDS011;31769;49.304;8.428;2022-11-20T05:19:24;36.35;;;25.45;;
46036;SDS011;31769;49.304;8.428;2022-11-20T05:22:25;36.08;;;25.83;;
46036;SDS011;31769;49.304;8.428;2022-11-20T05:25:25;33.92;;;24.52;;
46036;SDS011;31769;49.304;8.428;2022-11-20T05:28:27;35.97;;;25.98;;
46036;SDS011;31769;49.304;8.428;2022-11-20T05:31:29;36.80;;;25.50;;
46036;SDS011;31769;49.304;8.428;2022-11-20T05:34:29;33.80;;;24.35;;
46036;SDS011;31769;49.304;8.428;2022-11-20T05:37:30;35.30;;;25.08;;
46036;SDS011;31769;49.304;8.428;2022-11-20T05:40:30;36.88;;;25.10;;
46036;SDS011;31769;49.304;8.428;2022-11-20T05:43:32;35.55;;;24.67;;
46036;SDS011;31769;49.304;8.428;2022-11-20T05:46:34;34.58;;;25.67;;
46036;SDS011;31769;49.304;8.428;2022-11-20T05:49:35;35.63;;;24.25;;
46036;SDS011;31769;49.304;8.428;2022-11-20T05:52:35;33.55;;;24.48;;
46036;SDS011;31769;49.304;8.428;2022-11-20T05:55:36;36.65;;;25.60;;
46036;SDS011;31769;49.304;8.428;2022-11-20T05:58:37;37.28;;;25.60;;
46036;SDS011;31769;49.304;8.428;2022-11-20T06:01:38;35.72;;;25.73;;
46036;SDS011;31769;49.304;8.428;2022-11-20T06:04:39;34.50;;;24.35;;
46036;SDS011;31769;49.304;8.428;2022-11-20T06:07:40;33.55;;;24.33;;
46036;SDS011;31769;49.304;8.428;2022-11-20T06:10:40;37.65;;;26.33;;
46036;SDS011;31769;49.304;8.428;2022-11-20T06:13:41;35.17;;;25.42;;
46036;SDS011;31769;49.304;8.428;2022-11-20T06:16:42;40.78;;;26.77;;
46036;SDS011;31769;49.304;8.428;2022-11-20T06:19:43;36.20;;;25.90;;
46036;SDS011;31769;49.304;8.428;2022-11-20T06:22:44;39.20;;;26.80;;
46036;SDS011;31769;49.304;8.428;2022-11-20T06:25:44;37.88;;;26.45;;
46036;SDS011;31769;49.304;8.428;2022-11-20T06:28:45;34.67;;;24.80;;
46036;SDS011;31769;49.304;8.428;2022-11-20T06:31:46;34.95;;;24.83;;
46036;SDS011;31769;49.304;8.428;2022-11-20T06:34:47;33.25;;;24.55;;
46036;SDS011;31769;49.304;8.428;2022-11-20T06:37:48;33.58;;;23.50;;
46036;SDS011;31769;49.304;8.428;2022-11-20T06:40:48;37.10;;;25.40;;
46036;SDS011;31769;49.304;8.428;2022-11-20T06:43:49;35.53;;;23.88;;
46036;SDS011;31769;49.304;8.428;2022-11-20T06:46:50;38.20;;;24.98;;
46036;SDS011;31769;49.304;8.428;2022-11-20T06:49:50;40.05;;;25.85;;
46036;SDS011;31769;49.304;8.428;2022-11-20T06:52:51;39.45;;;25.33;;
46036;SDS011;31769;49.304;8.428;2022-11-20T06:55:52;39.97;;;25.58;;
46036;SDS011;31769;49.304;8.428;2022-11-20T06:58:56;40.40;;;25.70;;
46036;SDS011;31769;49.304;8.428;2022-11-20T07:01:56;37.97;;;23.90;;
46036;SDS011;31769;49.304;8.428;2022-11-20T07:04:57;37.17;;;21.70;;
46036;SDS011;31769;49.304;8.428;2022-11-20T07:07:58;34.40;;;23.15;;
46036;SDS011;31769;49.304;8.428;2022-11-20T07:10:59;33.00;;;19.50;;
46036;SDS011;31769;49.304;8.428;2022-11-20T07:14:01;31.35;;;19.40;;
46036;SDS011;31769;49.304;8.428;2022-11-20T07:17:02;28.27;;;18.50;;
46036;SDS011;31769;49.304;8.428;2022-11-20T07:20:03;36.75;;;19.33;;
46036;SDS011;31769;49.304;8.428;2022-11-20T07:23:04;27.45;;;18.05;;
46036;SDS011;31769;49.304;8.428;2022-11-20T07:26:05;27.17;;;18.13;;
46036;SDS011;31769;49.304;8.428;2022-11-20T07:29:07;22.80;;;15.27;;
46036;SDS011;31769;49.304;8.428;2022-11-20T07:32:08;24.98;;;15.75;;
46036;SDS011;31769;49.304;8.428;2022-11-20T07:35:09;18.05;;;13.80;;
46036;SDS011;31769;49.304;8.428;2022-11-20T07:38:09;17.80;;;13.30;;
46036;SDS011;31769;49.304;8.428;2022-11-20T07:41:10;17.20;;;13.23;;
46036;SDS011;31769;49.304;8.428;2022-11-20T07:44:11;15.95;;;11.93;;
46036;SDS011;31769;49.304;8.428;2022-11-20T07:47:12;13.00;;;10.90;;
46036;SDS011;31769;49.304;8.428;2022-11-20T07:50:13;15.80;;;11.98;;
46036;SDS011;31769;49.304;8.428;2022-11-20T07:53:14;16.67;;;11.73;;
46036;SDS011;31769;49.304;8.428;2022-11-20T07:56:20;13.68;;;10.60;;
46036;SDS011;31769;49.304;8.428;2022-11-20T07:59:21;16.98;;;11.35;;
46036;SDS011;31769;49.304;8.428;2022-11-20T08:02:22;14.85;;;10.23;;
46036;SDS011;31769;49.304;8.428;2022-11-20T08:05:23;13.35;;;9.82;;
46036;SDS011;31769;49.304;8.428;2022-11-20T08:08:23;14.32;;;9.93;;
46036;SDS011;31769;49.304;8.428;2022-11-20T08:11:24;11.15;;;9.07;;
46036;SDS011;31769;49.304;8.428;2022-11-20T08:14:43;12.52;;;9.90;;
46036;SDS011;31769;49.304;8.428;2022-11-20T08:17:44;13.23;;;9.95;;
46036;SDS011;31769;49.304;8.428;2022-11-20T08:20:45;11.25;;;9.48;;
46036;SDS011;31769;49.304;8.428;2022-11-20T08:23:45;11.48;;;9.30;;
46036;SDS011;31769;49.304;8.428;2022-11-20T08:26:46;12.93;;;8.63;;
46036;SDS011;31769;49.304;8.428;2022-11-20T08:29:47;12.98;;;8.57;;
46036;SDS011;31769;49.304;8.428;2022-11-20T08:32:47;11.27;;;8.65;;
46036;SDS011;31769;49.304;8.428;2022-11-20T08:35:48;9.50;;;8.52;;
46036;SDS011;31769;49.304;8.428;2022-11-20T08:38:49;10.32;;;8.48;;
46036;SDS011;31769;49.304;8.428;2022-11-20T08:41:51;10.18;;;8.25;;
46036;SDS011;31769;49.304;8.428;2022-11-20T08:44:51;8.32;;;7.35;;
46036;SDS011;31769;49.304;8.428;2022-11-20T08:47:52;8.85;;;8.00;;
46036;SDS011;31769;49.304;8.428;2022-11-20T08:50:53;8.52;;;7.60;;
46036;SDS011;31769;49.304;8.428;2022-11-20T08:53:53;9.45;;;7.72;;
46036;SDS011;31769;49.304;8.428;2022-11-20T08:56:54;9.90;;;8.50;;
46036;SDS011;31769;49.304;8.428;2022-11-20T08:59:55;11.13;;;8.93;;
46036;SDS011;31769;49.304;8.428;2022-11-20T09:02:55;9.50;;;8.52;;
46036;SDS011;31769;49.304;8.428;2022-11-20T09:06:00;9.32;;;8.35;;
46036;SDS011;31769;49.304;8.428;2022-11-20T09:09:02;10.07;;;8.68;;
46036;SDS011;31769;49.304;8.428;2022-11-20T09:12:02;9.70;;;8.80;;
46036;SDS011;31769;49.304;8.428;2022-11-20T09:15:03;10.02;;;8.13;;
46036;SDS011;31769;49.304;8.428;2022-11-20T09:18:04;9.82;;;8.70;;
46036;SDS011;31769;49.304;8.428;2022-11-20T09:21:06;12.93;;;8.55;;
46036;SDS011;31769;49.304;8.428;2022-11-20T09:24:10;10.52;;;9.40;;
46036;SDS011;31769;49.304;8.428;2022-11-20T09:27:11;9.88;;;8.70;;
46036;SDS011;31769;49.304;8.428;2022-11-20T09:30:15;10.40;;;8.80;;
46036;SDS011;31769;49.304;8.428;2022-11-20T09:33:16;16.95;;;13.00;;
46036;SDS011;31769;49.304;8.428;2022-11-20T09:36:17;14.65;;;10.18;;
46036;SDS011;31769;49.304;8.428;2022-11-20T09:39:21;10.23;;;9.18;;
46036;SDS011;31769;49.304;8.428;2022-11-20T09:55:42;9.65;;;8.75;;
46036;SDS011;31769;49.304;8.428;2022-11-20T09:58:44;10.45;;;9.32;;
46036;SDS011;31769;49.304;8.428;2022-11-20T10:01:48;10.43;;;9.32;;
46036;SDS011;31769;49.304;8.428;2022-11-20T10:04:55;9.98;;;8.93;;
46036;SDS011;31769;49.304;8.428;2022-11-20T10:08:21;9.32;;;7.45;;
46036;SDS011;31769;49.304;8.428;2022-11-20T10:18:55;10.23;;;8.10;;
46036;SDS011;31769;49.304;8.428;2022-11-20T10:28:24;7.22;;;6.63;;
46036;SDS011;31769;49.304;8.428;2022-11-20T10:31:30;7.10;;;6.10;;
46036;SDS011;31769;49.304;8.428;2022-11-20T10:37:56;7.45;;;5.47;;
46036;SDS011;31769;49.304;8.428;2022-11-20T10:41:00;4.35;;;3.92;;
46036;SDS011;31769;49.304;8.428;2022-11-20T10:44:24;3.08;;;2.80;;
46036;SDS011;31769;49.304;8.428;2022-11-20T10:47:46;3.78;;;2.65;;
46036;SDS011;31769;49.304;8.428;2022-11-20T10:50:49;4.93;;;3.72;;
46036;SDS011;31769;49.304;8.428;2022-11-20T11:01:03;4.18;;;3.78;;
46036;SDS011;31769;49.304;8.428;2022-11-20T11:04:07;4.25;;;3.85;;
46036;SDS011;31769;49.304;8.428;2022-11-20T11:07:38;3.63;;;3.10;;
46036;SDS011;31769;49.304;8.428;2022-11-20T11:13:50;4.45;;;3.08;;
46036;SDS011;31769;49.304;8.428;2022-11-20T11:16:57;3.78;;;3.15;;
46036;SDS011;31769;49.304;8.428;2022-11-20T11:23:10;7.22;;;2.20;;
46036;SDS011;31769;49.304;8.428;2022-11-20T11:26:33;5.85;;;2.78;;
46036;SDS011;31769;49.304;8.428;2022-11-20T11:29:33;4.18;;;1.70;;
46036;SDS011;31769;49.304;8.428;2022-11-20T11:32:34;2.67;;;1.48;;
46036;SDS011;31769;49.304;8.428;2022-11-20T11:35:38;3.75;;;1.75;;
46036;SDS011;31769;49.304;8.428;2022-11-20T11:38:50;4.70;;;1.60;;
46036;SDS011;31769;49.304;8.428;2022-11-20T11:41:53;6.30;;;2.72;;
46036;SDS011;31769;49.304;8.428;2022-11-20T11:44:54;12.90;;;3.80;;
46036;SDS011;31769;49.304;8.428;2022-11-20T11:48:07;3.33;;;2.15;;
46036;SDS011;31769;49.304;8.428;2022-11-20T11:51:09;5.15;;;2.65;;
46036;SDS011;31769;49.304;8.428;2022-11-20T11:54:18;4.72;;;2.00;;
46036;SDS011;31769;49.304;8.428;2022-11-20T11:57:36;5.18;;;1.50;;
46036;SDS011;31769;49.304;8.428;2022-11-20T12:01:35;2.67;;;1.45;;
46036;SDS011;31769;49.304;8.428;2022-11-20T12:04:44;3.42;;;1.77;;
46036;SDS011;31769;49.304;8.428;2022-11-20T12:07:58;3.20;;;1.13;;
46036;SDS011;31769;49.304;8.428;2022-11-20T12:11:20;7.00;;;1.20;;
46036;SDS011;31769;49.304;8.428;2022-11-20T12:14:53;4.00;;;1.08;;
46036;SDS011;31769;49.304;8.428;2022-11-20T12:17:56;5.10;;;0.70;;
46036;SDS011;31769;49.304;8.428;2022-11-20T12:21:12;1.98;;;0.70;;
46036;SDS011;31769;49.304;8.428;2022-11-20T12:55:13;2.83;;;0.85;;
46036;SDS011;31769;49.304;8.428;2022-11-20T12:58:33;5.35;;;1.35;;
46036;SDS011;31769;49.304;8.428;2022-11-20T13:08:52;2.90;;;0.95;;
46036;SDS011;31769;49.304;8.428;2022-11-20T13:12:05;3.10;;;1.05;;
46036;SDS011;31769;49.304;8.428;2022-11-20T13:18:42;3.75;;;1.27;;
46036;SDS011;31769;49.304;8.428;2022-11-20T13:21:46;3.17;;;1.48;;
46036;SDS011;31769;49.304;8.428;2022-11-20T13:24:52;5.03;;;1.17;;
46036;SDS011;31769;49.304;8.428;2022-11-20T13:27:53;2.72;;;0.93;;
46036;SDS011;31769;49.304;8.428;2022-11-20T13:30:56;3.95;;;1.23;;
46036;SDS011;31769;49.304;8.428;2022-11-20T13:33:58;3.95;;;1.30;;
46036;SDS011;31769;49.304;8.428;2022-11-20T13:37:01;2.28;;;1.05;;
46036;SDS011;31769;49.304;8.428;2022-11-20T13:43:21;1.85;;;0.77;;
46036;SDS011;31769;49.304;8.428;2022-11-20T13:46:23;1.67;;;0.63;;
46036;SDS011;31769;49.304;8.428;2022-11-20T13:49:38;3.45;;;0.85;;
46036;SDS011;31769;49.304;8.428;2022-11-20T14:06:10;4.30;;;1.15;;
46036;SDS011;31769;49.304;8.428;2022-11-20T14:12:29;4.28;;;0.52;;
46036;SDS011;31769;49.304;8.428;2022-11-20T14:15:32;2.10;;;0.50;;
46036;SDS011;31769;49.304;8.428;2022-11-20T14:18:33;1.67;;;0.50;;
46036;SDS011;31769;49.304;8.428;2022-11-20T14:21:34;2.70;;;0.40;;
46036;SDS011;31769;49.304;8.428;2022-11-20T14:24:35;2.80;;;0.90;;
46036;SDS011;31769;49.304;8.428;2022-11-20T14:27:36;3.55;;;0.90;;
46036;SDS011;31769;49.304;8.428;2022-11-20T14:30:45;3.92;;;1.02;;
46036;SDS011;31769;49.304;8.428;2022-11-20T14:33:48;2.88;;;0.85;;
46036;SDS011;31769;49.304;8.428;2022-11-20T14:36:50;3.55;;;1.85;;
46036;SDS011;31769;49.304;8.428;2022-11-20T14:42:58;3.38;;;1.80;;
46036;SDS011;31769;49.304;8.428;2022-11-20T14:46:00;3.50;;;1.40;;
46036;SDS011;31769;49.304;8.428;2022-11-20T14:49:07;3.35;;;1.73;;
46036;SDS011;31769;49.304;8.428;2022-11-20T14:52:11;4.65;;;1.98;;
46036;SDS011;31769;49.304;8.428;2022-11-20T14:55:36;3.75;;;1.90;;
46036;SDS011;31769;49.304;8.428;2022-11-20T14:58:38;4.25;;;1.90;;
46036;SDS011;31769;49.304;8.428;2022-11-20T15:01:38;2.80;;;1.65;;
46036;SDS011;31769;49.304;8.428;2022-11-20T15:04:49;1.83;;;1.20;;
46036;SDS011;31769;49.304;8.428;2022-11-20T15:08:06;11.60;;;5.55;;
46036;SDS011;31769;49.304;8.428;2022-11-20T15:11:18;10.10;;;4.30;;
46036;SDS011;31769;49.304;8.428;2022-11-20T15:14:23;3.55;;;1.50;;
46036;SDS011;31769;49.304;8.428;2022-11-20T15:17:25;6.00;;;2.00;;
46036;SDS011;31769;49.304;8.428;2022-11-20T15:20:26;5.07;;;1.92;;
46036;SDS011;31769;49.304;8.428;2022-11-20T15:23:30;5.60;;;1.77;;
46036;SDS011;31769;49.304;8.428;2022-11-20T15:26:30;6.55;;;2.88;;
46036;SDS011;31769;49.304;8.428;2022-11-20T15:29:31;4.03;;;2.20;;
46036;SDS011;31769;49.304;8.428;2022-11-20T15:32:32;4.40;;;2.40;;
46036;SDS011;31769;49.304;8.428;2022-11-20T15:35:33;5.82;;;2.13;;
46036;SDS011;31769;49.304;8.428;2022-11-20T15:38:33;10.27;;;3.70;;
46036;SDS011;31769;49.304;8.428;2022-11-20T15:41:34;10.93;;;4.38;;
46036;SDS011;31769;49.304;8.428;2022-11-20T15:44:36;4.38;;;2.50;;
46036;SDS011;31769;49.304;8.428;2022-11-20T15:47:36;12.35;;;4.32;;
46036;SDS011;31769;49.304;8.428;2022-11-20T15:50:38;8.77;;;4.20;;
46036;SDS011;31769;49.304;8.428;2022-11-20T15:53:49;7.97;;;3.58;;
46036;SDS011;31769;49.304;8.428;2022-11-20T15:56:50;5.97;;;2.72;;
46036;SDS011;31769;49.304;8.428;2022-11-20T15:59:52;5.22;;;2.75;;
46036;SDS011;31769;49.304;8.428;2022-11-20T16:02:53;5.78;;;2.30;;
46036;SDS011;31769;49.304;8.428;2022-11-20T16:05:53;6.45;;;3.17;;
46036;SDS011;31769;49.304;8.428;2022-11-20T16:08:54;5.50;;;2.10;;
46036;SDS011;31769;49.304;8.428;2022-11-20T16:11:54;6.95;;;2.47;;
46036;SDS011;31769;49.304;8.428;2022-11-20T16:14:55;3.88;;;1.63;;
46036;SDS011;31769;49.304;8.428;2022-11-20T16:18:15;4.07;;;1.58;;
46036;SDS011;31769;49.304;8.428;2022-11-20T16:21:20;5.53;;;1.90;;
46036;SDS011;31769;49.304;8.428;2022-11-20T16:24:21;4.25;;;1.95;;
46036;SDS011;31769;49.304;8.428;2022-11-20T16:27:21;3.65;;;1.95;;
46036;SDS011;31769;49.304;8.428;2022-11-20T16:30:22;6.55;;;2.35;;
46036;SDS011;31769;49.304;8.428;2022-11-20T16:33:23;3.60;;;1.80;;
46036;SDS011;31769;49.304;8.428;2022-11-20T16:36:24;6.25;;;2.40;;
46036;SDS011;31769;49.304;8.428;2022-11-20T16:39:27;9.82;;;4.25;;
46036;SDS011;31769;49.304;8.428;2022-11-20T16:42:29;5.85;;;2.47;;
46036;SDS011;31769;49.304;8.428;2022-11-20T16:45:42;4.18;;;1.90;;
46036;SDS011;31769;49.304;8.428;2022-11-20T16:48:54;9.55;;;2.65;;
46036;SDS011;31769;49.304;8.428;2022-11-20T16:52:08;7.57;;;3.55;;
46036;SDS011;31769;49.304;8.428;2022-11-20T16:55:08;5.28;;;2.20;;
46036;SDS011;31769;49.304;8.428;2022-11-20T16:58:10;9.77;;;3.85;;
46036;SDS011;31769;49.304;8.428;2022-11-20T17:01:12;8.07;;;4.10;;
46036;SDS011;31769;49.304;8.428;2022-11-20T17:04:14;11.98;;;5.88;;
46036;SDS011;31769;49.304;8.428;2022-11-20T17:07:15;3.00;;;2.30;;
46036;SDS011;31769;49.304;8.428;2022-11-20T17:10:15;6.72;;;3.95;;
46036;SDS011;31769;49.304;8.428;2022-11-20T17:13:16;6.53;;;3.28;;
46036;SDS011;31769;49.304;8.428;2022-11-20T17:16:18;5.43;;;3.00;;
46036;SDS011;31769;49.304;8.428;2022-11-20T17:19:20;4.63;;;2.72;;
46036;SDS011;31769;49.304;8.428;2022-11-20T17:22:20;4.00;;;2.15;;
46036;SDS011;31769;49.304;8.428;2022-11-20T17:25:21;10.95;;;7.03;;
46036;SDS011;31769;49.304;8.428;2022-11-20T17:28:22;36.55;;;24.80;;
46036;SDS011;31769;49.304;8.428;2022-11-20T17:31:23;4.32;;;3.15;;
46036;SDS011;31769;49.304;8.428;2022-11-20T17:34:24;5.00;;;1.98;;
46036;SDS011;31769;49.304;8.428;2022-11-20T17:37:24;4.30;;;1.70;;
46036;SDS011;31769;49.304;8.428;2022-11-20T17:40:25;4.18;;;1.80;;
46036;SDS011;31769;49.304;8.428;2022-11-20T17:43:26;4.05;;;1.80;;
46036;SDS011;31769;49.304;8.428;2022-11-20T17:46:27;6.88;;;3.95;;
46036;SDS011;31769;49.304;8.428;2022-11-20T17:49:31;6.63;;;3.45;;
46036;SDS011;31769;49.304;8.428;2022-11-20T17:52:32;9.00;;;4.78;;
46036;SDS011;31769;49.304;8.428;2022-11-20T17:55:33;6.38;;;2.88;;
46036;SDS011;31769;49.304;8.428;2022-11-20T17:58:53;3.45;;;1.95;;
46036;SDS011;31769;49.304;8.428;2022-11-20T18:01:54;7.85;;;3.42;;
46036;SDS011;31769;49.304;8.428;2022-11-20T18:04:55;7.32;;;2.90;;
46036;SDS011;31769;49.304;8.428;2022-11-20T18:07:55;11.30;;;4.60;;
46036;SDS011;31769;49.304;8.428;2022-11-20T18:10:56;5.20;;;2.10;;
46036;SDS011;31769;49.304;8.428;2022-11-20T18:13:57;4.75;;;2.80;;
46036;SDS011;31769;49.304;8.428;2022-11-20T18:17:17;7.47;;;1.40;;
46036;SDS011;31769;49.304;8.428;2022-11-20T18:20:17;4.78;;;1.88;;
46036;SDS011;31769;49.304;8.428;2022-11-20T18:23:18;2.45;;;1.40;;
46036;SDS011;31769;49.304;8.428;2022-11-20T18:26:19;3.35;;;1.20;;
46036;SDS011;31769;49.304;8.428;2022-11-20T18:29:20;3.50;;;1.63;;
46036;SDS011;31769;49.304;8.428;2022-11-20T18:32:20;4.78;;;1.42;;
46036;SDS011;31769;49.304;8.428;2022-11-20T18:35:22;2.53;;;1.20;;
46036;SDS011;31769;49.304;8.428;2022-11-20T18:38:22;1.48;;;1.35;;
46036;SDS011;31769;49.304;8.428;2022-11-20T18:41:24;1.52;;;1.42;;
46036;SDS011;31769;49.304;8.428;2022-11-20T18:44:45;4.32;;;1.40;;
46036;SDS011;31769;49.304;8.428;2022-11-20T18:47:53;2.80;;;1.48;;
46036;SDS011;31769;49.304;8.428;2022-11-20T18:50:54;4.13;;;1.60;;
46036;SDS011;31769;49.304;8.428;2022-11-20T18:53:54;3.83;;;1.67;;
46036;SDS011;31769;49.304;8.428;2022-11-20T18:56:56;3.42;;;1.60;;
46036;SDS011;31769;49.304;8.428;2022-11-20T18:59:57;1.83;;;1.70;;
46036;SDS011;31769;49.304;8.428;2022-11-20T19:02:59;5.88;;;3.10;;
46036;SDS011;31769;49.304;8.428;2022-11-20T19:05:59;3.60;;;1.75;;
46036;SDS011;31769;49.304;8.428;2022-11-20T19:09:01;4.25;;;2.00;;
46036;SDS011;31769;49.304;8.428;2022-11-20T19:12:04;7.95;;;5.65;;
46036;SDS011;31769;49.304;8.428;2022-11-20T19:15:06;3.05;;;1.83;;
46036;SDS011;31769;49.304;8.428;2022-11-20T19:18:07;9.68;;;6.43;;
46036;SDS011;31769;49.304;8.428;2022-11-20T19:21:13;5.13;;;3.00;;
46036;SDS011;31769;49.304;8.428;2022-11-20T19:24:18;4.15;;;2.10;;
46036;SDS011;31769;49.304;8.428;2022-11-20T19:27:19;9.50;;;3.50;;
46036;SDS011;31769;49.304;8.428;2022-11-20T19:30:19;5.80;;;2.85;;
46036;SDS011;31769;49.304;8.428;2022-11-20T19:33:20;5.15;;;2.30;;
46036;SDS011;31769;49.304;8.428;2022-11-20T19:36:23;5.28;;;2.97;;
46036;SDS011;31769;49.304;8.428;2022-11-20T19:39:25;3.20;;;2.38;;
46036;SDS011;31769;49.304;8.428;2022-11-20T19:42:26;6.82;;;5.35;;
46036;SDS011;31769;49.304;8.428;2022-11-20T19:45:27;4.35;;;2.40;;
46036;SDS011;31769;49.304;8.428;2022-11-20T19:48:31;4.22;;;2.35;;
46036;SDS011;31769;49.304;8.428;2022-11-20T19:51:33;3.55;;;1.70;;
46036;SDS011;31769;49.304;8.428;2022-11-20T19:54:34;4.97;;;2.33;;
46036;SDS011;31769;49.304;8.428;2022-11-20T19:57:35;4.20;;;1.80;;
46036;SDS011;31769;49.304;8.428;2022-11-20T20:00:36;4.07;;;2.25;;